Aviation Digital Data Service (ADDS)

Output produced by TAFs form (0907 UTC 30 May 2017)
found at http://www.aviationweather.gov/adds/tafs/
 
METAR text: RJCC 300900Z 15010KT 9999 FEW030 BKN/// 18/11 Q1004
Conditions at: RJCC (CHITOSE (JASDF/C, JP) observed 0900 UTC 30 May 2017
Temperature: 18.0°C (64°F)
Dewpoint: 11.0°C (52°F) [RH = 64%]
Pressure (altimeter): 29.65 inches Hg (1004.0 mb)
Winds: from the SSE (150 degrees) at 12 MPH (10 knots; 5.2 m/s)
Visibility: 6 or more miles (10+ km)
Ceiling: at least 12,000 feet AGL
Clouds: few clouds at 3000 feet AGL
Weather: no significant weather observed at this time

Forecast for: RJCC (CHITOSE (JASDF/C, JP)
Text: TAF RJCC 300505Z 3006/3112 17013KT 9999 FEW030
Forecast period: 0600 UTC 30 May 2017 to 1200 UTC 31 May 2017
Forecast type: FROM: standard forecast or significant change
Winds: from the S (170 degrees) at 15 MPH (13 knots; 6.8 m/s)
Visibility: 6 or more miles (10+ km)
Clouds: few clouds at 3000 feet AGL
Weather: no significant weather forecast for this period